createdAt,value
2016-06-04T00:00:54.591Z,80.96
2016-06-04T00:01:54.563Z,80.9
2016-06-04T00:02:54.549Z,81.09
2016-06-04T00:03:54.537Z,81.96
2016-06-04T00:04:54.508Z,81.76
2016-06-04T00:05:54.496Z,81.72
2016-06-04T00:06:54.483Z,81.53
2016-06-04T00:07:54.454Z,81.38
2016-06-04T00:08:54.441Z,81.38
2016-06-04T00:09:54.444Z,81.34
2016-06-04T00:10:54.399Z,81.72
2016-06-04T00:11:54.386Z,81.86
2016-06-04T00:12:54.374Z,81.43
2016-06-04T00:13:54.345Z,81.82
2016-06-04T00:14:54.332Z,81.92
2016-06-04T00:15:54.318Z,81.92
2016-06-04T00:16:54.290Z,81.53
2016-06-04T00:17:54.278Z,81.92
2016-06-04T00:18:54.264Z,81.82
2016-06-04T00:19:54.237Z,82.24
2016-06-04T00:20:54.223Z,82.01
2016-06-04T00:21:54.210Z,81.92
2016-06-04T00:22:54.197Z,81.92
2016-06-04T00:23:54.169Z,81.82
2016-06-04T00:24:54.156Z,81.92
2016-06-04T00:25:54.143Z,82.1
2016-06-04T00:26:54.114Z,82.68
2016-06-04T00:27:54.100Z,82.4
2016-06-04T00:28:54.089Z,82.3
2016-06-04T00:29:54.060Z,82.59
2016-06-04T00:30:54.047Z,82.59
2016-06-04T00:31:54.033Z,83.36
2016-06-04T00:32:54.005Z,83.54
2016-06-04T00:33:53.992Z,83.54
2016-06-04T00:34:53.980Z,84.03
2016-06-04T00:35:53.951Z,83.64
2016-06-04T00:36:53.938Z,84.22
2016-06-04T00:37:53.925Z,83.84
2016-06-04T00:38:53.897Z,84.22
2016-06-04T00:39:53.883Z,84.22
2016-06-04T00:40:54.215Z,84.89
2016-06-04T00:41:53.843Z,84.8
2016-06-04T00:42:53.829Z,84.51
2016-06-04T00:43:53.832Z,84.7
2016-06-04T00:44:53.787Z,84.99
2016-06-04T00:45:53.775Z,84.12
2016-06-04T00:46:53.762Z,84.31
2016-06-04T00:47:53.734Z,85.08
2016-06-04T00:48:53.720Z,84.7
2016-06-04T00:49:53.707Z,84.99
2016-06-04T00:50:53.679Z,84.99
2016-06-04T00:51:53.665Z,84.89
2016-06-04T00:52:53.654Z,85.08
2016-06-04T00:53:53.625Z,85.37
2016-06-04T00:54:53.611Z,85.18
2016-06-04T00:55:53.598Z,85.37
2016-06-04T00:56:53.586Z,85.37
2016-06-04T00:57:53.557Z,85.18
2016-06-04T00:58:53.556Z,85.37
2016-06-04T00:59:53.562Z,86.05
2016-06-04T01:00:53.581Z,85.85
2016-06-04T01:01:53.602Z,85.66
2016-06-04T01:02:53.607Z,85.47
2016-06-04T01:03:53.619Z,85.66
2016-06-04T01:04:53.619Z,85.85
2016-06-04T01:05:53.618Z,86.24
2016-06-04T01:06:53.601Z,85.95
2016-06-04T01:07:53.600Z,86.1
2016-06-04T01:08:53.580Z,86.58
2016-06-04T01:09:53.571Z,86.81
2016-06-04T01:10:53.563Z,86.62
2016-06-04T01:11:53.570Z,86.81
2016-06-04T01:12:53.530Z,86.91
2016-06-04T01:13:53.520Z,86.43
2016-06-04T01:14:53.509Z,86.68
2016-06-04T01:15:53.481Z,86.91
2016-06-04T01:16:53.470Z,86.91
2016-06-04T01:17:53.444Z,87.01
2016-06-04T01:18:53.431Z,87.01
2016-06-04T01:19:53.418Z,86.87
2016-06-04T01:20:53.391Z,87.05
2016-06-04T01:21:53.378Z,87.82
2016-06-04T01:22:53.366Z,87.82
2016-06-04T01:23:53.338Z,87.44
2016-06-04T01:24:53.325Z,87.54
2016-06-04T01:25:53.328Z,87.25
2016-06-04T01:26:53.300Z,87.35
2016-06-04T01:27:53.271Z,88.02
2016-06-04T01:28:53.259Z,87.73
2016-06-04T01:29:53.231Z,88.11
2016-06-04T01:30:53.218Z,87.73
2016-06-04T01:31:53.189Z,88.02
2016-06-04T01:32:53.176Z,88.11
2016-06-04T01:33:53.162Z,88.31
2016-06-04T01:34:53.135Z,88.21
2016-06-04T01:35:53.122Z,88.11
2016-06-04T01:36:53.109Z,88.4
2016-06-04T01:37:53.096Z,88.49
2016-06-04T01:38:53.067Z,88.88
2016-06-04T01:39:53.054Z,88.69
2016-06-04T01:40:53.026Z,88.69
2016-06-04T01:41:53.028Z,88.98
2016-06-04T01:42:53.000Z,88.98
2016-06-04T01:43:52.972Z,89.07
2016-06-04T01:44:52.958Z,88.88
2016-06-04T01:45:52.945Z,89.17
2016-06-04T01:46:52.917Z,89.17
2016-06-04T01:47:52.905Z,89.26
2016-06-04T01:48:52.891Z,89.36
2016-06-04T01:49:52.863Z,89.26
2016-06-04T01:50:52.849Z,88.88
2016-06-04T01:51:52.821Z,89.26
2016-06-04T01:52:52.808Z,89.84
2016-06-04T01:53:52.795Z,89.55
2016-06-04T01:54:52.829Z,89.46
2016-06-04T01:55:52.754Z,89.75
2016-06-04T01:56:52.741Z,90.22
2016-06-04T01:57:52.713Z,89.94
2016-06-04T01:58:52.699Z,89.65
2016-06-04T01:59:52.686Z,90.13
2016-06-04T02:00:52.658Z,90.03
2016-06-04T02:01:52.660Z,90.32
2016-06-04T02:02:52.615Z,90.22
2016-06-04T02:03:52.604Z,90.32
2016-06-04T02:04:52.590Z,90.7
2016-06-04T02:05:52.561Z,90.42
2016-06-04T02:06:52.549Z,90.42
2016-06-04T02:07:52.536Z,90.22
2016-06-04T02:08:52.522Z,90.7
2016-06-04T02:09:52.510Z,90.42
2016-06-04T02:10:52.482Z,90.9
2016-06-04T02:11:52.952Z,90.7
2016-06-04T02:12:52.440Z,90.61
2016-06-04T02:13:52.427Z,90.9
2016-06-04T02:14:52.398Z,90.8
2016-06-04T02:15:52.385Z,91.28
2016-06-04T02:16:52.357Z,91.09
2016-06-04T02:17:52.344Z,91.28
2016-06-04T02:18:52.331Z,91.28
2016-06-04T02:19:52.318Z,91.28
2016-06-04T02:20:52.289Z,91.19
2016-06-04T02:21:52.277Z,91.28
2016-06-04T02:22:52.249Z,91.19
2016-06-04T02:23:52.252Z,91.09
2016-06-04T02:24:52.222Z,91.19
2016-06-04T02:25:52.209Z,91.09
2016-06-04T02:26:52.180Z,91.09
2016-06-04T02:27:52.168Z,91.09
2016-06-04T02:28:52.139Z,91.09
2016-06-04T02:29:52.126Z,91.09
2016-06-04T02:30:52.098Z,91.09
2016-06-04T02:31:52.085Z,91.28
2016-06-04T02:32:52.071Z,90.9
2016-06-04T02:33:52.043Z,90.99
2016-06-04T02:34:52.031Z,90.7
2016-06-04T02:35:52.018Z,91.28
2016-06-04T02:36:51.989Z,91.19
2016-06-04T02:37:51.975Z,91.76
2016-06-04T02:38:51.963Z,91.66
2016-06-04T02:39:51.934Z,91.28
2016-06-04T02:40:51.922Z,91.28
2016-06-04T02:41:51.893Z,91.19
2016-06-04T02:42:51.880Z,91.96
2016-06-04T02:43:51.867Z,91.47
2016-06-04T02:44:51.839Z,91.28
2016-06-04T02:45:51.825Z,91.38
2016-06-04T02:46:51.813Z,91.57
2016-06-04T02:47:51.783Z,91.47
2016-06-04T02:48:51.771Z,91.47
2016-06-04T02:49:51.758Z,91.86
2016-06-04T02:50:51.730Z,91.76
2016-06-04T02:51:51.716Z,91.86
2016-06-04T02:52:51.704Z,91.57
2016-06-04T02:53:51.675Z,91.57
2016-06-04T02:54:51.663Z,91.38
2016-06-04T02:55:51.633Z,91.47
2016-06-04T02:56:52.183Z,91.28
2016-06-04T02:57:51.607Z,91.47
2016-06-04T02:58:51.579Z,91.09
2016-06-04T02:59:51.566Z,90.9
2016-06-04T03:00:51.554Z,91.66
2016-06-04T03:01:51.524Z,91.57
2016-06-04T03:02:51.512Z,91.47
2016-06-04T03:03:51.499Z,91.57
2016-06-04T03:04:51.471Z,91.96
2016-06-04T03:05:51.457Z,91.57
2016-06-04T03:06:51.445Z,91.19
2016-06-04T03:07:51.432Z,91.38
2016-06-04T03:08:51.403Z,91.47
2016-06-04T03:09:51.390Z,91.96
2016-06-04T03:10:51.361Z,91.96
2016-06-04T03:11:51.630Z,91.47
2016-06-04T03:12:51.320Z,91.47
2016-06-04T03:13:51.307Z,91.57
2016-06-04T03:14:51.294Z,91.09
2016-06-04T03:15:51.266Z,91.47
2016-06-04T03:16:51.253Z,91.19
2016-06-04T03:17:51.239Z,92.14
2016-06-04T03:18:51.212Z,92.05
2016-06-04T03:19:51.198Z,91.96
2016-06-04T03:20:51.185Z,91.57
2016-06-04T03:21:51.158Z,91.66
2016-06-04T03:22:51.144Z,91.47
2016-06-04T03:23:51.131Z,91.47
2016-06-04T03:24:51.102Z,91.47
2016-06-04T03:25:51.168Z,91.57
2016-06-04T03:26:51.061Z,91.57
2016-06-04T03:27:51.049Z,91.47
2016-06-04T03:28:51.035Z,91.76
2016-06-04T03:29:51.007Z,91.86
2016-06-04T03:30:50.994Z,91.76
2016-06-04T03:31:50.981Z,91.57
2016-06-04T03:32:50.951Z,91.66
2016-06-04T03:33:50.940Z,91.76
2016-06-04T03:34:50.926Z,91.86
2016-06-04T03:35:50.898Z,91.47
2016-06-04T03:36:50.884Z,91.47
2016-06-04T03:37:50.871Z,91.57
2016-06-04T03:38:50.843Z,91.96
2016-06-04T03:39:50.831Z,91.86
2016-06-04T03:40:51.254Z,91.66
2016-06-04T03:41:50.789Z,91.86
2016-06-04T03:42:50.791Z,92.14
2016-06-04T03:43:50.747Z,92.53
2016-06-04T03:44:50.734Z,92.33
2016-06-04T03:45:50.737Z,92.24
2016-06-04T03:46:50.693Z,92.72
2016-06-04T03:47:50.680Z,91.96
2016-06-04T03:48:50.667Z,91.86
2016-06-04T03:49:50.638Z,92.14
2016-06-04T03:50:50.625Z,91.66
2016-06-04T03:51:50.612Z,91.66
2016-06-04T03:52:50.584Z,91.86
2016-06-04T03:53:50.571Z,91.66
2016-06-04T03:54:50.605Z,91.96
2016-06-04T03:55:50.544Z,91.76
2016-06-04T03:56:50.516Z,91.96
2016-06-04T03:57:50.504Z,91.96
2016-06-04T03:58:50.475Z,92.05
2016-06-04T03:59:50.462Z,91.76
2016-06-04T04:00:50.449Z,92.14
2016-06-04T04:01:50.421Z,92.14
2016-06-04T04:02:50.408Z,91.57
2016-06-04T04:03:50.410Z,91.66
2016-06-04T04:04:50.366Z,91.86
2016-06-04T04:05:50.354Z,91.71
2016-06-04T04:06:50.340Z,92
2016-06-04T04:07:50.312Z,91.96
2016-06-04T04:08:50.298Z,91.61
2016-06-04T04:09:50.286Z,91.42
2016-06-04T04:10:50.460Z,91.66
2016-06-04T04:11:50.245Z,91.61
2016-06-04T04:12:50.231Z,91.52
2016-06-04T04:13:50.218Z,91.61
2016-06-04T04:14:50.187Z,91.81
2016-06-04T04:15:50.175Z,91.52
2016-06-04T04:16:50.161Z,91.13
2016-06-04T04:17:50.133Z,91.13
2016-06-04T04:18:50.120Z,91.23
2016-06-04T04:19:50.106Z,91.04
2016-06-04T04:20:50.078Z,91.42
2016-06-04T04:21:50.066Z,91.33
2016-06-04T04:22:50.053Z,91.81
2016-06-04T04:23:50.039Z,91.13
2016-06-04T04:24:50.105Z,91.33
2016-06-04T04:25:50.327Z,90.84
2016-06-04T04:26:50.205Z,91.33
2016-06-04T04:27:49.957Z,91.04
2016-06-04T04:28:49.944Z,91.13
2016-06-04T04:29:49.931Z,90.94
2016-06-04T04:30:49.918Z,91.18
2016-06-04T04:31:49.888Z,91.23
2016-06-04T04:32:49.876Z,91.37
2016-06-04T04:33:49.863Z,91.18
2016-06-04T04:34:49.835Z,90.7
2016-06-04T04:35:49.821Z,90.7
2016-06-04T04:36:49.809Z,90.8
2016-06-04T04:37:49.796Z,90.22
2016-06-04T04:38:49.767Z,90.6
2016-06-04T04:39:49.755Z,90.51
2016-06-04T04:40:49.742Z,90.41
2016-06-04T04:41:49.729Z,90.41
2016-06-04T04:42:49.700Z,90.22
2016-06-04T04:43:49.687Z,90.36
2016-06-04T04:44:49.674Z,89.74
2016-06-04T04:45:49.662Z,89.78
2016-06-04T04:46:49.648Z,89.59
2016-06-04T04:47:49.620Z,89.98
2016-06-04T04:48:49.606Z,89.88
2016-06-04T04:49:49.594Z,89.01
2016-06-04T04:50:49.581Z,89.5
2016-06-04T04:51:49.553Z,89.21
2016-06-04T04:52:49.539Z,89.5
2016-06-04T04:53:49.527Z,88.92
2016-06-04T04:54:49.514Z,88.92
2016-06-04T04:55:49.486Z,89.11
2016-06-04T04:56:49.472Z,89.3
2016-06-04T04:57:49.458Z,88.34
2016-06-04T04:58:49.447Z,88.53
2016-06-04T04:59:49.433Z,88.53
2016-06-04T05:00:49.404Z,88.24
2016-06-04T05:01:49.391Z,88.53
2016-06-04T05:02:49.379Z,88.53
2016-06-04T05:03:49.366Z,88.44
2016-06-04T05:04:49.338Z,88.53
2016-06-04T05:05:49.324Z,88.15
2016-06-04T05:06:49.312Z,88.15
2016-06-04T05:07:49.299Z,88.06
2016-06-04T05:08:49.285Z,87.86
2016-06-04T05:09:49.257Z,88.06
2016-06-04T05:10:49.244Z,88.15
2016-06-04T05:11:49.231Z,88.06
2016-06-04T05:12:49.218Z,87.96
2016-06-04T05:13:49.221Z,87.86
2016-06-04T05:14:49.177Z,87.86
2016-06-04T05:15:49.164Z,87.76
2016-06-04T05:16:49.150Z,87.67
2016-06-04T05:17:49.138Z,87.96
2016-06-04T05:18:49.125Z,87.67
2016-06-04T05:19:49.097Z,87.23
2016-06-04T05:20:49.084Z,87.04
2016-06-04T05:21:49.087Z,87.13
2016-06-04T05:22:49.058Z,87.13
2016-06-04T05:23:49.044Z,86.75
2016-06-04T05:24:49.017Z,86.36
2016-06-04T05:25:49.128Z,87.04
2016-06-04T05:26:48.991Z,86.46
2016-06-04T05:27:48.977Z,86.46
2016-06-04T05:28:48.964Z,86.65
2016-06-04T05:29:48.936Z,85.98
2016-06-04T05:30:48.938Z,86.18
2016-06-04T05:31:48.910Z,85.78
2016-06-04T05:32:48.897Z,85.93
2016-06-04T05:33:48.885Z,85.83
2016-06-04T05:34:48.871Z,85.54
2016-06-04T05:35:48.858Z,85.54
2016-06-04T05:36:48.829Z,85.06
2016-06-04T05:37:48.817Z,85.16
2016-06-04T05:38:48.804Z,85.16
2016-06-04T05:39:48.791Z,85.06
2016-06-04T05:40:48.779Z,85.16
2016-06-04T05:41:49.093Z,84.72
2016-06-04T05:42:48.752Z,85
2016-06-04T05:43:48.739Z,84.23
2016-06-04T05:44:48.726Z,84.23
2016-06-04T05:45:48.698Z,83.85
2016-06-04T05:46:48.684Z,84.14
2016-06-04T05:47:48.672Z,83.56
2016-06-04T05:48:48.659Z,83.8
2016-06-04T05:49:48.646Z,83.12
2016-06-04T05:50:48.633Z,82.83
2016-06-04T05:51:48.620Z,82.64
2016-06-04T05:52:48.607Z,82.35
2016-06-04T05:53:48.578Z,82.06
2016-06-04T05:54:48.628Z,82.06
2016-06-04T05:55:48.553Z,81.72
2016-06-04T05:56:48.571Z,82.06
2016-06-04T05:57:48.527Z,81.24
2016-06-04T05:58:48.514Z,81.43
2016-06-04T05:59:48.501Z,81.14
2016-06-04T06:00:48.488Z,80.85
2016-06-04T06:01:48.475Z,81.33
2016-06-04T06:02:48.462Z,80.85
2016-06-04T06:03:48.450Z,80.46
2016-06-04T06:04:48.436Z,79.98
2016-06-04T06:05:48.424Z,79.98
2016-06-04T06:06:48.410Z,80.18
2016-06-04T06:07:48.397Z,80.46
2016-06-04T06:08:48.384Z,80.37
2016-06-04T06:09:48.371Z,79.6
2016-06-04T06:10:48.374Z,79.5
2016-06-04T06:11:48.346Z,79.6
2016-06-04T06:12:48.332Z,79.16
2016-06-04T06:13:48.320Z,78.48
2016-06-04T06:14:48.307Z,78.48
2016-06-04T06:15:48.294Z,78.09
2016-06-04T06:16:48.281Z,77.9
2016-06-04T06:17:48.284Z,77.71
2016-06-04T06:18:48.256Z,77.65
2016-06-04T06:19:48.242Z,77.07
2016-06-04T06:20:48.229Z,76.78
2016-06-04T06:21:48.217Z,76.59
2016-06-04T06:22:48.219Z,76.59
2016-06-04T06:23:48.190Z,76.98
2016-06-04T06:24:48.177Z,76.59
2016-06-04T06:25:48.227Z,76.78
2016-06-04T06:26:48.153Z,76.3
2016-06-04T06:27:48.139Z,76.5
2016-06-04T06:28:48.125Z,76.2
2016-06-04T06:29:48.113Z,76.2
2016-06-04T06:30:48.100Z,75.92
2016-06-04T06:31:48.086Z,75.62
2016-06-04T06:32:48.074Z,75.53
2016-06-04T06:33:48.061Z,76.01
2016-06-04T06:34:48.049Z,75.53
2016-06-04T06:35:48.144Z,75.43
2016-06-04T06:36:48.022Z,75.53
2016-06-04T06:37:48.010Z,75.72
2016-06-04T06:38:48.012Z,75.43
2016-06-04T06:39:47.983Z,75.43
2016-06-04T06:40:47.971Z,75.53
2016-06-04T06:41:48.488Z,75.43
2016-06-04T06:42:47.945Z,75.82
2016-06-04T06:43:47.932Z,75.62
2016-06-04T06:44:47.918Z,75.24
2016-06-04T06:45:47.906Z,75.14
2016-06-04T06:46:47.893Z,74.95
2016-06-04T06:47:47.880Z,75.24
2016-06-04T06:48:47.882Z,74.41
2016-06-04T06:49:47.870Z,74.12
2016-06-04T06:50:47.856Z,74.06
2016-06-04T06:51:47.845Z,73.28
2016-06-04T06:52:47.831Z,73.86
2016-06-04T06:53:47.818Z,73
2016-06-04T06:54:47.805Z,72.64
2016-06-04T06:55:47.792Z,71.78
2016-06-04T06:56:47.779Z,71.72
2016-06-04T06:57:47.766Z,71.72
2016-06-04T06:58:47.753Z,71.42
2016-06-04T06:59:47.741Z,71.33
2016-06-04T07:00:47.744Z,70.36
2016-06-04T07:01:47.731Z,70.36
2016-06-04T07:02:47.717Z,69.88
2016-06-04T07:03:47.705Z,69.62
2016-06-04T07:04:47.691Z,69.14
2016-06-04T07:05:47.678Z,68.66
2016-06-04T07:06:47.681Z,67.91
2016-06-04T07:07:47.669Z,67.63
2016-06-04T07:08:47.655Z,67.53
2016-06-04T07:09:47.657Z,67.37
2016-06-04T07:10:47.645Z,66.69
2016-06-04T07:11:47.694Z,66.5
2016-06-04T07:12:47.618Z,66.14
2016-06-04T07:13:47.606Z,65.47
2016-06-04T07:14:47.610Z,64.69
2016-06-04T07:15:47.596Z,64.72
2016-06-04T07:16:47.582Z,65.11
2016-06-04T07:17:47.585Z,64.4
2016-06-04T07:18:47.573Z,63.85
2016-06-04T07:19:47.560Z,64.04
2016-06-04T07:20:47.562Z,63.07
2016-06-04T07:21:47.550Z,63.3
2016-06-04T07:22:47.553Z,62.52
2016-06-04T07:23:47.540Z,61.98
2016-06-04T07:24:47.526Z,61.1
2016-06-04T07:25:47.513Z,60.94
2016-06-04T07:26:47.517Z,61.13
2016-06-04T07:27:47.503Z,60.16
2016-06-04T07:28:47.506Z,59.87
2016-06-04T07:29:47.493Z,58.83
2016-06-04T07:30:47.495Z,58.83
2016-06-04T07:31:47.483Z,58.64
2016-06-04T07:32:47.485Z,58.25
2016-06-04T07:33:47.472Z,57.21
2016-06-04T07:34:47.460Z,56.82
2016-06-04T07:35:47.463Z,56.26
2016-06-04T07:36:47.465Z,56.07
2016-06-04T07:37:47.452Z,55.61
2016-06-04T07:38:47.439Z,55.41
2016-06-04T07:39:47.442Z,54.83
2016-06-04T07:40:47.554Z,54.35
2016-06-04T07:41:47.432Z,54.15
2016-06-04T07:42:47.435Z,54.05
2016-06-04T07:43:47.422Z,53.59
2016-06-04T07:44:47.424Z,53.59
2016-06-04T07:45:47.410Z,53.11
2016-06-04T07:46:47.413Z,53.11
2016-06-04T07:47:47.416Z,52.92
2016-06-04T07:48:47.404Z,52.14
2016-06-04T07:49:47.406Z,52.23
2016-06-04T07:50:47.393Z,52.23
2016-06-04T07:51:47.396Z,51.75
2016-06-04T07:52:47.383Z,51.48
2016-06-04T07:53:47.386Z,51.55
2016-06-04T07:54:47.372Z,51.45
2016-06-04T07:55:47.376Z,51.55
2016-06-04T07:56:47.362Z,51.53
2016-06-04T07:57:47.365Z,51.53
2016-06-04T07:58:47.368Z,51.72
2016-06-04T07:59:47.355Z,51.92
2016-06-04T08:00:47.342Z,51.53
2016-06-04T08:01:47.345Z,51.53
2016-06-04T08:02:47.331Z,51.4
2016-06-04T08:03:47.334Z,51.21
2016-06-04T08:04:47.322Z,51.4
2016-06-04T08:05:47.324Z,51.31
2016-06-04T08:06:47.311Z,51.7
2016-06-04T08:07:47.314Z,51.5
2016-06-04T08:08:47.302Z,51.5
2016-06-04T08:09:47.304Z,51.31
2016-06-04T08:10:47.291Z,50.73
2016-06-04T08:11:47.293Z,50.73
2016-06-04T08:12:47.874Z,50.73
2016-06-04T08:13:47.283Z,50.92
2016-06-04T08:14:47.270Z,50.14
2016-06-04T08:15:47.274Z,50.53
2016-06-04T08:16:47.260Z,50.04
2016-06-04T08:17:47.263Z,49.97
2016-06-04T08:18:47.265Z,49.19
2016-06-04T08:19:47.252Z,49.71
2016-06-04T08:20:47.240Z,48.73
2016-06-04T08:21:47.242Z,49.02
2016-06-04T08:22:47.229Z,48.83
2016-06-04T08:23:47.231Z,48.63
2016-06-04T08:24:47.220Z,48.15
2016-06-04T08:25:47.222Z,48.44
2016-06-04T08:26:47.225Z,47.78
2016-06-04T08:27:47.212Z,48.17
2016-06-04T08:28:47.214Z,47.39
2016-06-04T08:29:47.201Z,47.03
2016-06-04T08:30:47.203Z,46.15
2016-06-04T08:31:47.191Z,46.05
2016-06-04T08:32:47.194Z,45.76
2016-06-04T08:33:47.196Z,45.18
2016-06-04T08:34:47.184Z,44.98
2016-06-04T08:35:47.186Z,44.49
2016-06-04T08:36:47.172Z,43.91
2016-06-04T08:37:47.175Z,43.74
2016-06-04T08:38:47.178Z,43.93
2016-06-04T08:39:47.165Z,42.86
2016-06-04T08:40:47.168Z,42.47
2016-06-04T08:41:47.155Z,42.49
2016-06-04T08:42:47.313Z,42.49
2016-06-04T08:43:47.145Z,42.3
2016-06-04T08:44:47.149Z,42.2
2016-06-04T08:45:47.151Z,42.38
2016-06-04T08:46:47.154Z,42.4
2016-06-04T08:47:47.140Z,42.47
2016-06-04T08:48:47.143Z,42.47
2016-06-04T08:49:47.130Z,42.3
2016-06-04T08:50:47.132Z,41.52
2016-06-04T08:51:47.135Z,41.13
2016-06-04T08:52:47.123Z,40.83
2016-06-04T08:53:47.125Z,41.5
2016-06-04T08:54:47.128Z,41.5
2016-06-04T08:55:47.115Z,41.22
2016-06-04T08:56:47.117Z,41.03
2016-06-04T08:57:47.104Z,40.91
2016-06-04T08:58:47.467Z,41.01
2016-06-04T08:59:47.109Z,40.55
2016-06-04T09:00:47.097Z,39.75
2016-06-04T09:01:47.100Z,40.16
2016-06-04T09:02:47.103Z,39.86
2016-06-04T09:03:47.089Z,39.67
2016-06-04T09:04:47.092Z,39.37
2016-06-04T09:05:47.095Z,39.49
2016-06-04T09:06:47.083Z,39.47
2016-06-04T09:07:47.085Z,39.18
2016-06-04T09:08:47.088Z,39.18
2016-06-04T09:09:47.075Z,39.37
2016-06-04T09:10:47.077Z,39.18
2016-06-04T09:11:47.080Z,38.61
2016-06-04T09:12:47.395Z,38.02
2016-06-04T09:13:47.069Z,37.93
2016-06-04T09:14:47.072Z,37.65
2016-06-04T09:15:47.074Z,37.65
2016-06-04T09:16:47.063Z,37.46
2016-06-04T09:17:47.065Z,37.46
2016-06-04T09:18:47.067Z,36.9
2016-06-04T09:19:47.055Z,36.9
2016-06-04T09:20:47.057Z,36.68
2016-06-04T09:21:47.060Z,36.99
2016-06-04T09:22:47.063Z,36.7
2016-06-04T09:23:47.049Z,36.6
2016-06-04T09:24:47.052Z,36.8
2016-06-04T09:25:47.055Z,36.68
2016-06-04T09:26:47.057Z,36.41
2016-06-04T09:27:47.045Z,36.51
2016-06-04T09:28:47.047Z,36.7
2016-06-04T09:29:47.051Z,36.88
2016-06-04T09:30:47.037Z,36.98
2016-06-04T09:31:47.039Z,36.6
2016-06-04T09:32:47.042Z,36.6
2016-06-04T09:33:47.046Z,36.58
2016-06-04T09:34:47.033Z,36.58
2016-06-04T09:35:47.036Z,36.39
2016-06-04T09:36:47.038Z,36
2016-06-04T09:37:47.041Z,36.29
2016-06-04T09:38:47.028Z,36
2016-06-04T09:39:47.030Z,35.51
2016-06-04T09:40:47.033Z,34.94
2016-06-04T09:41:47.036Z,34.83
2016-06-04T09:42:47.023Z,34.06
2016-06-04T09:43:47.197Z,34.53
2016-06-04T09:44:47.028Z,34.24
2016-06-04T09:45:47.015Z,34.05
2016-06-04T09:46:47.018Z,33.65
2016-06-04T09:47:47.021Z,33.77
2016-06-04T09:48:47.007Z,33.58
2016-06-04T09:49:47.010Z,33.5
2016-06-04T09:50:47.013Z,32.71
2016-06-04T09:51:47.016Z,32.71
2016-06-04T09:52:47.018Z,32.42
2016-06-04T09:53:47.004Z,32.11
2016-06-04T09:54:47.102Z,31.92
2016-06-04T09:55:47.010Z,31.62
2016-06-04T09:56:47.013Z,31.72
2016-06-04T09:57:47.000Z,31.43
2016-06-04T09:58:47.004Z,31.62
2016-06-04T09:59:47.021Z,31.33
2016-06-04T10:00:46.993Z,30.96
2016-06-04T10:01:46.995Z,30.74
2016-06-04T10:02:46.998Z,30.35
2016-06-04T10:03:47.001Z,30.06
2016-06-04T10:04:46.989Z,29.77
2016-06-04T10:05:47.008Z,29.49
2016-06-04T10:06:47.039Z,28.91
2016-06-04T10:07:47.069Z,29.47
2016-06-04T10:08:47.115Z,29.38
2016-06-04T10:09:47.130Z,29.38
2016-06-04T10:10:47.133Z,29.57
2016-06-04T10:11:47.146Z,28.91
2016-06-04T10:12:47.143Z,28.82
2016-06-04T10:13:47.484Z,28.25
2016-06-04T10:14:47.168Z,27.86
2016-06-04T10:15:47.177Z,28.05
2016-06-04T10:16:47.183Z,27.47
2016-06-04T10:17:47.173Z,27.66
2016-06-04T10:18:47.179Z,27.37
2016-06-04T10:19:47.186Z,27.08
2016-06-04T10:20:47.191Z,27.17
2016-06-04T10:21:47.179Z,26.78
2016-06-04T10:22:47.183Z,26.67
2016-06-04T10:23:47.203Z,27.06
2016-06-04T10:24:47.192Z,26.48
2016-06-04T10:25:47.179Z,26.48
2016-06-04T10:26:47.198Z,26.48
2016-06-04T10:27:47.186Z,25.99
2016-06-04T10:28:47.532Z,25.68
2016-06-04T10:29:47.177Z,25.59
2016-06-04T10:30:47.179Z,25.31
2016-06-04T10:31:47.182Z,24.81
2016-06-04T10:32:47.185Z,24.12
2016-06-04T10:33:47.171Z,24.32
2016-06-04T10:34:47.174Z,24.32
2016-06-04T10:35:47.177Z,25
2016-06-04T10:36:47.164Z,24.22
2016-06-04T10:37:47.167Z,24.32
2016-06-04T10:38:47.170Z,23.93
2016-06-04T10:39:47.157Z,24.32
2016-06-04T10:40:47.159Z,24.32
2016-06-04T10:41:47.162Z,24.32
2016-06-04T10:42:47.165Z,24.22
2016-06-04T10:43:47.168Z,24.33
2016-06-04T10:44:47.154Z,24.33
2016-06-04T10:45:47.157Z,24.73
2016-06-04T10:46:47.159Z,24.43
2016-06-04T10:47:47.148Z,25.02
2016-06-04T10:48:47.150Z,24.63
2016-06-04T10:49:47.152Z,24.24
2016-06-04T10:50:47.155Z,23.96
2016-06-04T10:51:47.158Z,23.28
2016-06-04T10:52:47.145Z,23.48
2016-06-04T10:53:47.147Z,23.19
2016-06-04T10:54:47.150Z,23
2016-06-04T10:55:47.152Z,22.71
2016-06-04T10:56:47.155Z,22.41
2016-06-04T10:57:47.158Z,22.22
2016-06-04T10:58:47.144Z,22.51
2016-06-04T10:59:47.148Z,22.41
2016-06-04T11:00:47.150Z,22.03
2016-06-04T11:01:47.153Z,22.03
2016-06-04T11:02:47.156Z,21.94
2016-06-04T11:03:47.159Z,22.12
2016-06-04T11:04:47.161Z,21.83
2016-06-04T11:05:47.149Z,22.12
2016-06-04T11:06:47.151Z,22.22
2016-06-04T11:07:47.154Z,22.31
2016-06-04T11:08:47.157Z,21.92
2016-06-04T11:09:47.159Z,22.22
2016-06-04T11:10:47.162Z,22.12
2016-06-04T11:11:47.164Z,22.12
2016-06-04T11:12:47.168Z,21.73
2016-06-04T11:13:47.170Z,21.84
2016-06-04T11:14:47.157Z,21.74
2016-06-04T11:15:47.160Z,21.55
2016-06-04T11:16:47.163Z,21.56
2016-06-04T11:17:47.165Z,21.26
2016-06-04T11:18:47.168Z,20.67
2016-06-04T11:19:47.171Z,20.88
2016-06-04T11:20:47.173Z,20.68
2016-06-04T11:21:47.176Z,20.59
2016-06-04T11:22:47.178Z,20.39
2016-06-04T11:23:47.181Z,20.49
2016-06-04T11:24:47.184Z,20.3
2016-06-04T11:25:47.187Z,20.5
2016-06-04T11:26:47.189Z,20.3
2016-06-04T11:27:47.192Z,20.59
2016-06-04T11:28:47.195Z,20.49
2016-06-04T11:29:47.183Z,20.38
2016-06-04T11:30:47.185Z,20.97
2016-06-04T11:31:47.188Z,20.77
2016-06-04T11:32:47.205Z,21.16
2016-06-04T11:33:47.193Z,21.15
2016-06-04T11:34:47.196Z,21.44
2016-06-04T11:35:47.199Z,21.63
2016-06-04T11:36:47.185Z,21.53
2016-06-04T11:37:47.203Z,22.02
2016-06-04T11:38:47.191Z,22.02
2016-06-04T11:39:47.193Z,21.92
2016-06-04T11:40:47.180Z,22.21
2016-06-04T11:41:47.495Z,22.21
2016-06-04T11:42:47.185Z,22.02
2016-06-04T11:43:47.172Z,22.11
2016-06-04T11:44:47.176Z,22.11
2016-06-04T11:45:47.178Z,21.92
2016-06-04T11:46:47.180Z,22.2
2016-06-04T11:47:47.168Z,22.1
2016-06-04T11:48:47.171Z,21.71
2016-06-04T11:49:47.173Z,22
2016-06-04T11:50:47.160Z,22
2016-06-04T11:51:47.163Z,21.81
2016-06-04T11:52:47.165Z,22.1
2016-06-04T11:53:47.168Z,22.19
2016-06-04T11:54:47.171Z,21.99
2016-06-04T11:55:47.158Z,22.48
2016-06-04T11:56:47.847Z,22.67
2016-06-04T11:57:47.148Z,22.58
2016-06-04T11:58:47.150Z,22.38
2016-06-04T11:59:47.153Z,22.38
2016-06-04T12:00:47.156Z,21.91
2016-06-04T12:01:47.158Z,22.1
2016-06-04T12:02:47.146Z,21.92
2016-06-04T12:03:47.148Z,22.02
2016-06-04T12:04:47.136Z,21.83
2016-06-04T12:05:47.138Z,21.63
2016-06-04T12:06:47.141Z,21.53
2016-06-04T12:07:47.143Z,21.73
2016-06-04T12:08:47.147Z,22.12
2016-06-04T12:09:47.133Z,21.83
2016-06-04T12:10:47.136Z,21.55
2016-06-04T12:11:47.513Z,21.64
2016-06-04T12:12:47.141Z,21.85
2016-06-04T12:13:47.144Z,21.15
2016-06-04T12:14:47.146Z,21.55
2016-06-04T12:15:47.134Z,20.66
2016-06-04T12:16:47.137Z,20.47
2016-06-04T12:17:47.139Z,20.47
2016-06-04T12:18:47.142Z,20.07
2016-06-04T12:19:47.145Z,19.68
2016-06-04T12:20:47.148Z,19.78
2016-06-04T12:21:47.150Z,19.49
2016-06-04T12:22:47.153Z,19.2
2016-06-04T12:23:47.155Z,18.81
2016-06-04T12:24:47.142Z,18.52
2016-06-04T12:25:47.161Z,18.33
2016-06-04T12:26:47.147Z,18.43
2016-06-04T12:27:47.167Z,18.52
2016-06-04T12:28:47.169Z,18.43
2016-06-04T12:29:47.156Z,18.43
2016-06-04T12:30:47.158Z,18.33
2016-06-04T12:31:47.161Z,18.24
2016-06-04T12:32:47.164Z,18.44
2016-06-04T12:33:47.166Z,18.34
2016-06-04T12:34:47.169Z,18.05
2016-06-04T12:35:47.172Z,17.96
2016-06-04T12:36:47.175Z,17.96
2016-06-04T12:37:47.177Z,17.76
2016-06-04T12:38:47.180Z,17.96
2016-06-04T12:39:47.183Z,17.96
2016-06-04T12:40:47.185Z,17.67
2016-06-04T12:41:47.188Z,17.77
2016-06-04T12:42:47.191Z,17.67
2016-06-04T12:43:47.193Z,17.48
2016-06-04T12:44:47.196Z,17.38
2016-06-04T12:45:47.198Z,17.58
2016-06-04T12:46:47.202Z,17.47
2016-06-04T12:47:47.204Z,17.38
2016-06-04T12:48:47.207Z,17.19
2016-06-04T12:49:47.209Z,16.99
2016-06-04T12:50:47.212Z,16.71
2016-06-04T12:51:47.215Z,16.71
2016-06-04T12:52:47.326Z,16.02
2016-06-04T12:53:47.220Z,16.41
2016-06-04T12:54:47.223Z,16.61
2016-06-04T12:55:47.226Z,16.22